createdAt,value
2017-02-27T00:00:34.501Z,0
2017-02-27T00:01:42.589Z,0
2017-02-27T00:02:50.673Z,0
2017-02-27T00:03:58.773Z,0
2017-02-27T00:05:06.861Z,0
2017-02-27T00:06:14.949Z,0
2017-02-27T00:07:23.036Z,0
2017-02-27T00:08:31.128Z,0
2017-02-27T00:09:39.221Z,0
2017-02-27T00:10:47.307Z,0
2017-02-27T00:11:55.398Z,0
2017-02-27T00:13:03.487Z,0
2017-02-27T00:14:11.573Z,0
2017-02-27T00:15:19.662Z,0
2017-02-27T00:16:27.758Z,0
2017-02-27T00:17:35.850Z,0
2017-02-27T00:18:43.938Z,0
2017-02-27T00:19:52.026Z,0
2017-02-27T00:21:00.119Z,0
2017-02-27T00:22:08.206Z,0
2017-02-27T00:23:16.295Z,0
2017-02-27T00:24:24.393Z,0
2017-02-27T00:25:32.482Z,0
2017-02-27T00:26:40.567Z,0
2017-02-27T00:27:48.664Z,0
2017-02-27T00:28:56.755Z,0
2017-02-27T00:30:04.845Z,0
2017-02-27T00:31:12.927Z,0
2017-02-27T00:32:21.028Z,0
2017-02-27T00:33:29.121Z,0
2017-02-27T00:34:37.206Z,0
2017-02-27T00:35:45.299Z,0
2017-02-27T00:36:53.387Z,0
2017-02-27T00:38:01.480Z,0
2017-02-27T00:39:09.569Z,0
2017-02-27T00:40:17.670Z,0
2017-02-27T00:41:25.755Z,0
2017-02-27T00:42:33.841Z,0
2017-02-27T00:43:41.935Z,0
2017-02-27T00:44:50.023Z,0
2017-02-27T00:45:58.109Z,0
2017-02-27T00:47:06.202Z,0
2017-02-27T00:48:14.297Z,0
2017-02-27T00:49:22.384Z,0
2017-02-27T00:50:30.471Z,0
2017-02-27T00:51:38.570Z,0
2017-02-27T00:52:46.669Z,0
2017-02-27T00:53:54.855Z,0
2017-02-27T00:55:02.844Z,0
2017-02-27T00:56:10.940Z,0
2017-02-27T00:57:19.033Z,0
2017-02-27T00:58:27.122Z,0
2017-02-27T00:59:35.212Z,0
2017-02-27T01:00:43.306Z,0
2017-02-27T01:01:51.396Z,0
2017-02-27T01:02:59.496Z,0
2017-02-27T01:04:07.584Z,0
2017-02-27T01:05:15.683Z,0
2017-02-27T01:06:23.768Z,0
2017-02-27T01:07:31.865Z,0
2017-02-27T01:08:39.955Z,0
2017-02-27T01:09:48.044Z,0
2017-02-27T01:10:56.194Z,0
2017-02-27T01:12:04.230Z,0
2017-02-27T01:13:12.315Z,0
2017-02-27T01:14:20.404Z,0
2017-02-27T01:15:28.510Z,0
2017-02-27T01:16:36.597Z,0
2017-02-27T01:17:44.686Z,0
2017-02-27T01:18:52.773Z,0
2017-02-27T01:20:00.865Z,0
2017-02-27T01:21:08.957Z,0
2017-02-27T01:22:17.042Z,0
2017-02-27T01:23:25.136Z,0
2017-02-27T01:24:33.227Z,0
2017-02-27T01:25:41.322Z,0
2017-02-27T01:26:49.420Z,0
2017-02-27T01:27:57.546Z,0
2017-02-27T01:29:05.597Z,0
2017-02-27T01:30:13.684Z,0
2017-02-27T01:31:21.781Z,0
2017-02-27T01:32:29.874Z,0
2017-02-27T01:33:37.964Z,0
2017-02-27T01:34:46.057Z,0
2017-02-27T01:52:42.123Z,0
2017-02-27T01:52:55.481Z,0
2017-02-27T01:54:04.664Z,0
2017-02-27T01:55:11.655Z,0
2017-02-27T01:56:19.749Z,0
2017-02-27T01:57:27.842Z,0
2017-02-27T01:58:35.929Z,0
2017-02-27T01:59:44.023Z,0
2017-02-27T02:00:52.112Z,0
2017-02-27T02:02:00.202Z,0
2017-02-27T02:03:08.290Z,0
2017-02-27T02:04:16.389Z,0
2017-02-27T02:05:24.472Z,0
2017-02-27T02:06:32.566Z,0
2017-02-27T02:07:40.659Z,0
2017-02-27T02:08:48.745Z,0
2017-02-27T02:09:56.836Z,0
2017-02-27T02:11:04.928Z,0
2017-02-27T02:12:13.011Z,0
2017-02-27T02:13:21.103Z,0
2017-02-27T02:14:29.199Z,0
2017-02-27T02:15:37.285Z,0
2017-02-27T02:16:45.366Z,0
2017-02-27T02:17:53.455Z,0
2017-02-27T02:19:01.554Z,0
2017-02-27T02:20:09.643Z,0
2017-02-27T02:21:17.727Z,0
2017-02-27T02:22:25.823Z,0
2017-02-27T02:23:33.914Z,0
2017-02-27T02:24:42.004Z,0
2017-02-27T02:25:50.094Z,0
2017-02-27T02:26:58.185Z,0
2017-02-27T02:28:06.275Z,0
2017-02-27T02:29:14.364Z,0
2017-02-27T02:30:22.459Z,0
2017-02-27T02:31:30.552Z,0
2017-02-27T02:32:38.641Z,0
2017-02-27T02:33:46.731Z,0
2017-02-27T02:34:54.834Z,0
2017-02-27T02:36:02.985Z,0
2017-02-27T02:37:11.017Z,0
2017-02-27T02:38:19.115Z,0
2017-02-27T02:39:27.626Z,0
2017-02-27T02:40:35.335Z,0
2017-02-27T02:41:43.383Z,0
2017-02-27T02:42:51.478Z,0
2017-02-27T02:43:59.567Z,0
2017-02-27T02:45:08.199Z,0
2017-02-27T02:46:15.743Z,0
2017-02-27T02:47:23.831Z,0
2017-02-27T02:48:31.932Z,0
2017-02-27T02:49:40.019Z,0
2017-02-27T02:50:48.108Z,0
2017-02-27T02:51:56.199Z,0
2017-02-27T02:53:04.289Z,0
2017-02-27T02:54:12.382Z,0
2017-02-27T02:55:20.472Z,0
2017-02-27T02:56:28.555Z,0
2017-02-27T02:57:36.647Z,0
2017-02-27T02:58:44.740Z,0
2017-02-27T02:59:52.849Z,0
2017-02-27T03:01:00.918Z,0
2017-02-27T03:02:09.008Z,0
2017-02-27T03:03:17.097Z,0
2017-02-27T03:04:25.183Z,0
2017-02-27T03:05:33.280Z,0
2017-02-27T03:06:41.369Z,0
2017-02-27T03:07:49.459Z,0
2017-02-27T03:08:57.544Z,0
2017-02-27T03:10:05.635Z,0
2017-02-27T03:11:13.725Z,0
2017-02-27T03:12:21.816Z,0
2017-02-27T03:13:29.917Z,0
2017-02-27T03:14:38.003Z,0
2017-02-27T03:15:46.091Z,0
2017-02-27T03:16:54.187Z,0
2017-02-27T03:18:02.283Z,0
2017-02-27T03:19:10.373Z,0
2017-02-27T03:20:18.458Z,0
2017-02-27T03:21:26.552Z,0
2017-02-27T03:22:34.744Z,0
2017-02-27T03:23:42.729Z,0
2017-02-27T03:24:50.824Z,0
2017-02-27T03:25:58.912Z,0
2017-02-27T03:27:07.004Z,0
2017-02-27T03:28:15.089Z,0
2017-02-27T03:29:23.179Z,0
2017-02-27T03:30:31.267Z,0
2017-02-27T03:31:39.358Z,0
2017-02-27T03:32:47.449Z,0
2017-02-27T03:33:55.537Z,0
2017-02-27T03:35:03.620Z,0
2017-02-27T03:36:11.712Z,0
2017-02-27T03:37:19.802Z,0
2017-02-27T03:38:27.896Z,0
2017-02-27T03:39:36.063Z,0
2017-02-27T03:40:44.078Z,0
2017-02-27T03:41:52.166Z,0
2017-02-27T03:43:00.262Z,0
2017-02-27T03:44:08.343Z,0
2017-02-27T03:45:16.440Z,0
2017-02-27T03:46:24.532Z,0
2017-02-27T03:47:32.625Z,0
2017-02-27T03:48:40.721Z,0
2017-02-27T03:49:48.816Z,0
2017-02-27T03:50:56.902Z,0
2017-02-27T03:52:04.989Z,0
2017-02-27T03:53:13.085Z,0
2017-02-27T03:54:21.170Z,0
2017-02-27T03:55:29.264Z,0
2017-02-27T03:56:37.344Z,0
2017-02-27T03:57:45.439Z,0
2017-02-27T03:58:53.523Z,0
2017-02-27T04:00:01.612Z,0
2017-02-27T04:01:09.712Z,0
2017-02-27T04:02:17.804Z,0
2017-02-27T04:03:25.890Z,0
2017-02-27T04:04:33.984Z,0
2017-02-27T04:05:42.068Z,0
2017-02-27T04:06:50.158Z,0
2017-02-27T04:07:58.245Z,0
2017-02-27T04:09:06.344Z,0
2017-02-27T04:10:14.438Z,0
2017-02-27T04:11:22.523Z,0
2017-02-27T04:12:30.617Z,0
2017-02-27T04:13:38.709Z,0
2017-02-27T04:14:46.795Z,0
2017-02-27T04:15:54.890Z,0
2017-02-27T04:17:02.983Z,0
2017-02-27T04:18:11.075Z,0
2017-02-27T04:19:19.169Z,0
2017-02-27T04:20:27.256Z,0
2017-02-27T04:21:35.349Z,0
2017-02-27T04:22:43.440Z,0
2017-02-27T04:23:51.533Z,0
2017-02-27T04:24:59.625Z,0
2017-02-27T04:26:07.709Z,0
2017-02-27T04:27:15.791Z,0
2017-02-27T04:28:23.888Z,0
2017-02-27T04:29:31.975Z,0
2017-02-27T04:30:40.065Z,0
2017-02-27T04:31:48.159Z,0
2017-02-27T04:32:56.247Z,0
2017-02-27T04:34:04.345Z,0
2017-02-27T04:35:12.424Z,0
2017-02-27T04:36:20.520Z,0
2017-02-27T04:37:28.602Z,0
2017-02-27T04:38:36.695Z,0
2017-02-27T04:39:44.787Z,0
2017-02-27T04:40:52.876Z,0
2017-02-27T04:42:00.968Z,0
2017-02-27T04:43:09.055Z,0
2017-02-27T04:44:17.149Z,0
2017-02-27T04:45:25.237Z,0
2017-02-27T04:46:33.339Z,0
2017-02-27T04:47:41.516Z,0
2017-02-27T04:48:49.515Z,0
2017-02-27T04:49:57.599Z,0
2017-02-27T04:51:05.689Z,0
2017-02-27T04:52:13.778Z,0
2017-02-27T04:53:21.878Z,0
2017-02-27T04:54:29.960Z,0
2017-02-27T04:55:38.055Z,0
2017-02-27T04:56:46.142Z,0
2017-02-27T04:57:54.234Z,0
2017-02-27T04:59:02.314Z,0
2017-02-27T05:00:10.407Z,0
2017-02-27T05:01:18.488Z,0
2017-02-27T05:02:26.585Z,0
2017-02-27T05:03:34.680Z,0
2017-02-27T05:04:42.770Z,0
2017-02-27T05:05:50.859Z,0
2017-02-27T05:06:58.942Z,0
2017-02-27T05:08:07.038Z,0
2017-02-27T05:09:15.125Z,0
2017-02-27T05:10:23.214Z,0
2017-02-27T05:11:31.303Z,0
2017-02-27T05:12:39.395Z,0
2017-02-27T05:13:47.478Z,0
2017-02-27T05:14:55.570Z,0
2017-02-27T05:16:03.659Z,0
2017-02-27T05:17:11.848Z,0
2017-02-27T05:18:19.838Z,0
2017-02-27T05:19:27.925Z,0
2017-02-27T05:20:36.023Z,0
2017-02-27T05:21:44.110Z,0
2017-02-27T05:22:52.199Z,0
2017-02-27T05:24:00.293Z,0
2017-02-27T05:25:08.376Z,0
2017-02-27T05:26:16.468Z,0
2017-02-27T05:27:24.559Z,0
2017-02-27T05:28:32.657Z,0
2017-02-27T05:29:40.744Z,0
2017-02-27T05:30:48.837Z,0
2017-02-27T05:31:56.928Z,0
2017-02-27T05:33:05.021Z,0
2017-02-27T05:34:13.114Z,0
2017-02-27T05:35:21.201Z,0
2017-02-27T05:36:29.293Z,0
2017-02-27T05:37:37.377Z,0
2017-02-27T05:38:45.471Z,0
2017-02-27T05:39:53.558Z,0
2017-02-27T05:41:01.649Z,0
2017-02-27T05:42:09.731Z,0
2017-02-27T05:43:17.821Z,0
2017-02-27T05:44:25.912Z,0
2017-02-27T05:45:34.006Z,0
2017-02-27T05:46:42.090Z,0
2017-02-27T05:47:50.183Z,0
2017-02-27T05:48:58.272Z,0
2017-02-27T05:50:06.360Z,0
2017-02-27T05:51:14.456Z,0
2017-02-27T05:52:22.546Z,0
2017-02-27T05:53:30.631Z,0
2017-02-27T05:54:38.721Z,0
2017-02-27T05:55:46.812Z,0
2017-02-27T05:56:54.902Z,0
2017-02-27T05:58:02.984Z,0
2017-02-27T05:59:11.070Z,0
2017-02-27T06:00:19.177Z,0
2017-02-27T06:01:27.251Z,0
2017-02-27T06:02:35.344Z,0
2017-02-27T06:03:43.440Z,0
2017-02-27T06:04:51.521Z,0
2017-02-27T06:05:59.613Z,0
2017-02-27T06:07:07.709Z,0
2017-02-27T06:08:15.801Z,0
2017-02-27T06:09:23.890Z,0
2017-02-27T06:10:31.980Z,0
2017-02-27T06:11:40.068Z,4
2017-02-27T06:12:48.161Z,4
2017-02-27T06:13:56.247Z,4
2017-02-27T06:15:04.336Z,4
2017-02-27T06:16:12.422Z,0
2017-02-27T06:17:20.512Z,0
2017-02-27T06:18:28.605Z,0
2017-02-27T06:19:36.695Z,0
2017-02-27T06:20:44.784Z,4
2017-02-27T06:21:52.866Z,4
2017-02-27T06:23:00.959Z,4
2017-02-27T06:24:09.050Z,4
2017-02-27T06:25:17.134Z,0
2017-02-27T06:26:25.233Z,4
2017-02-27T06:27:33.313Z,4
2017-02-27T06:28:41.400Z,4
2017-02-27T06:29:49.489Z,4
2017-02-27T06:30:57.581Z,8
2017-02-27T06:32:05.674Z,4
2017-02-27T06:33:13.757Z,4
2017-02-27T06:34:21.851Z,4
2017-02-27T06:35:29.943Z,4
2017-02-27T06:36:38.025Z,8
2017-02-27T06:37:46.118Z,8
2017-02-27T06:38:54.351Z,8
2017-02-27T06:40:02.293Z,8
2017-02-27T06:41:10.375Z,8
2017-02-27T06:42:18.472Z,8
2017-02-27T06:43:26.563Z,12
2017-02-27T06:44:34.651Z,8
2017-02-27T06:45:42.798Z,8
2017-02-27T06:46:50.841Z,8
2017-02-27T06:47:59.232Z,8
2017-02-27T06:49:07.006Z,12
2017-02-27T06:50:15.094Z,20
2017-02-27T06:51:23.183Z,20
2017-02-27T06:52:31.271Z,16
2017-02-27T06:53:39.523Z,16
2017-02-27T06:54:47.494Z,24
2017-02-27T06:55:55.541Z,16
2017-02-27T06:57:04.104Z,16
2017-02-27T06:58:11.722Z,16
2017-02-27T06:59:19.811Z,20
2017-02-27T07:00:27.896Z,20
2017-02-27T07:01:35.990Z,24
2017-02-27T07:02:44.108Z,24
2017-02-27T07:03:52.308Z,24
2017-02-27T07:05:00.262Z,24
2017-02-27T07:06:08.358Z,24
2017-02-27T07:07:16.444Z,28
2017-02-27T07:08:24.536Z,28
2017-02-27T07:09:32.625Z,32
2017-02-27T07:10:40.722Z,32
2017-02-27T07:11:48.800Z,32
2017-02-27T07:12:56.885Z,32
2017-02-27T07:14:04.979Z,28
2017-02-27T07:15:13.068Z,28
2017-02-27T07:16:21.160Z,32
2017-02-27T07:17:29.258Z,32
2017-02-27T07:18:37.408Z,28
2017-02-27T07:19:45.429Z,28
2017-02-27T07:20:53.510Z,28
2017-02-27T07:22:01.608Z,32
2017-02-27T07:23:09.696Z,32
2017-02-27T07:24:17.781Z,36
2017-02-27T07:25:25.872Z,36
2017-02-27T07:26:33.969Z,36
2017-02-27T07:27:42.043Z,36
2017-02-27T07:28:50.132Z,36
2017-02-27T07:29:58.458Z,28
2017-02-27T07:31:06.312Z,24
2017-02-27T07:32:14.403Z,24
2017-02-27T07:33:22.489Z,20
2017-02-27T07:34:30.580Z,24
2017-02-27T07:35:38.664Z,20
2017-02-27T07:36:46.759Z,20
2017-02-27T07:37:54.851Z,24
2017-02-27T07:39:02.934Z,28
2017-02-27T07:40:11.030Z,24
2017-02-27T07:41:19.122Z,24
2017-02-27T07:42:27.204Z,24
2017-02-27T07:43:35.298Z,24
2017-02-27T07:44:43.381Z,20
2017-02-27T07:45:51.485Z,20
2017-02-27T07:46:59.578Z,24
2017-02-27T07:48:07.806Z,24
2017-02-27T07:49:15.755Z,36
2017-02-27T07:50:23.840Z,28
2017-02-27T07:51:31.927Z,44
2017-02-27T07:52:40.014Z,32
2017-02-27T07:53:48.108Z,44
2017-02-27T07:54:56.776Z,48
2017-02-27T07:56:04.277Z,48
2017-02-27T07:57:12.365Z,32
2017-02-27T07:58:20.642Z,48
2017-02-27T07:59:28.547Z,32
2017-02-27T08:00:36.637Z,44
2017-02-27T08:01:44.725Z,48
2017-02-27T08:02:52.887Z,44
2017-02-27T08:04:00.909Z,44
2017-02-27T08:05:09.002Z,40
2017-02-27T08:06:17.088Z,52
2017-02-27T08:07:26.489Z,48
2017-02-27T08:08:33.267Z,48
2017-02-27T08:09:41.714Z,48
2017-02-27T08:10:49.456Z,48
2017-02-27T08:11:57.534Z,40
2017-02-27T08:13:05.625Z,36
2017-02-27T08:14:13.708Z,48
2017-02-27T08:15:21.800Z,48
2017-02-27T08:16:29.897Z,52
2017-02-27T08:17:37.988Z,52
2017-02-27T08:18:46.072Z,52
2017-02-27T08:19:54.537Z,52
2017-02-27T08:21:02.248Z,56
2017-02-27T08:22:10.339Z,56
2017-02-27T08:23:18.426Z,52
2017-02-27T08:24:26.514Z,52
2017-02-27T08:25:34.606Z,56
2017-02-27T08:26:42.687Z,60
2017-02-27T08:27:50.861Z,56
2017-02-27T08:28:58.881Z,60
2017-02-27T08:30:07.526Z,60
2017-02-27T08:31:15.057Z,48
2017-02-27T08:32:23.179Z,40
2017-02-27T08:33:31.240Z,40
2017-02-27T08:34:39.323Z,40
2017-02-27T08:35:47.409Z,44
2017-02-27T08:36:55.508Z,48
2017-02-27T08:38:03.591Z,36
2017-02-27T08:39:11.686Z,28
2017-02-27T08:40:19.775Z,24
2017-02-27T08:41:27.859Z,24
2017-02-27T08:42:35.949Z,28
2017-02-27T08:43:44.033Z,48
2017-02-27T08:44:52.119Z,52
2017-02-27T08:46:00.211Z,48
2017-02-27T08:47:08.298Z,48
2017-02-27T08:48:16.385Z,52
2017-02-27T08:49:24.479Z,52
2017-02-27T08:50:32.564Z,56
2017-02-27T08:51:40.651Z,56
2017-02-27T08:52:48.741Z,56
2017-02-27T08:53:56.828Z,56
2017-02-27T08:55:04.912Z,60
2017-02-27T08:56:13.636Z,56
2017-02-27T08:57:21.094Z,56
2017-02-27T08:58:29.183Z,56
2017-02-27T08:59:37.274Z,56
2017-02-27T09:00:45.359Z,52
2017-02-27T09:01:53.447Z,52
2017-02-27T09:03:01.535Z,48
2017-02-27T09:04:09.627Z,48
2017-02-27T09:05:17.716Z,48
2017-02-27T09:06:25.803Z,48
2017-02-27T09:07:33.896Z,44
2017-02-27T09:08:41.982Z,48
2017-02-27T09:09:50.070Z,48
2017-02-27T09:10:58.151Z,48
2017-02-27T09:12:06.252Z,48
2017-02-27T09:13:14.339Z,48
2017-02-27T09:14:22.426Z,48
2017-02-27T09:15:30.516Z,48
2017-02-27T09:16:38.618Z,48
2017-02-27T09:17:46.708Z,44
2017-02-27T09:18:54.800Z,44
2017-02-27T09:20:02.883Z,44
2017-02-27T09:21:12.595Z,48
2017-02-27T09:22:19.070Z,52
2017-02-27T09:23:27.164Z,52
2017-02-27T09:24:35.232Z,52
2017-02-27T09:25:43.321Z,56
2017-02-27T09:26:51.419Z,52
2017-02-27T09:27:59.508Z,44
2017-02-27T09:29:07.602Z,52
2017-02-27T09:30:15.920Z,40
2017-02-27T09:31:24.184Z,48
2017-02-27T09:32:31.957Z,28
2017-02-27T09:33:40.233Z,36
2017-02-27T09:34:48.099Z,28
2017-02-27T09:35:56.622Z,32
2017-02-27T09:37:04.206Z,52
2017-02-27T09:38:12.291Z,52
2017-02-27T09:39:20.381Z,36
2017-02-27T09:40:28.481Z,28
2017-02-27T09:41:36.553Z,24
2017-02-27T09:42:44.643Z,32
2017-02-27T09:43:52.737Z,28
2017-02-27T09:45:00.862Z,40
2017-02-27T09:46:08.911Z,28
2017-02-27T09:47:17.000Z,48
2017-02-27T09:48:25.087Z,36
2017-02-27T09:49:33.171Z,40
2017-02-27T09:50:41.257Z,36
2017-02-27T09:51:49.346Z,32
2017-02-27T09:52:57.434Z,32
2017-02-27T09:54:05.515Z,36
2017-02-27T09:55:13.604Z,36
2017-02-27T09:56:21.693Z,36
2017-02-27T09:57:29.781Z,44
2017-02-27T09:58:37.865Z,52
2017-02-27T09:59:45.959Z,56
2017-02-27T10:00:54.046Z,40
2017-02-27T10:02:02.128Z,32
2017-02-27T10:03:10.221Z,36
2017-02-27T10:04:18.311Z,32
2017-02-27T10:05:26.399Z,36
2017-02-27T10:06:34.489Z,28
2017-02-27T10:07:42.578Z,32
2017-02-27T10:08:50.668Z,32
2017-02-27T10:09:58.751Z,36
2017-02-27T10:11:06.840Z,32
2017-02-27T10:12:14.931Z,32
2017-02-27T10:13:23.025Z,36
2017-02-27T10:14:31.109Z,36
2017-02-27T10:15:39.208Z,40
2017-02-27T10:16:47.303Z,40
2017-02-27T10:17:55.388Z,36
2017-02-27T10:19:03.482Z,36
2017-02-27T10:20:11.580Z,32
2017-02-27T10:21:19.670Z,32
2017-02-27T10:22:27.761Z,32
2017-02-27T10:23:35.851Z,32
2017-02-27T10:24:43.943Z,32
2017-02-27T10:25:52.021Z,32
2017-02-27T10:27:00.113Z,40
2017-02-27T10:28:08.201Z,36
2017-02-27T10:29:16.282Z,36
2017-02-27T10:30:24.378Z,36
2017-02-27T10:31:32.466Z,36
2017-02-27T10:32:40.556Z,36
2017-02-27T10:33:48.640Z,32
2017-02-27T10:34:56.727Z,32
2017-02-27T10:36:04.815Z,32
2017-02-27T10:37:12.903Z,28
2017-02-27T10:38:20.989Z,36
2017-02-27T10:39:29.081Z,32
2017-02-27T10:40:37.167Z,32
2017-02-27T10:41:45.256Z,32
2017-02-27T10:42:53.756Z,48
2017-02-27T10:44:01.433Z,36
2017-02-27T10:45:09.521Z,48
2017-02-27T10:46:17.607Z,40
2017-02-27T10:47:25.702Z,40
2017-02-27T10:48:33.787Z,40
2017-02-27T10:49:41.873Z,40
2017-02-27T10:50:49.966Z,48
2017-02-27T10:51:58.050Z,52
2017-02-27T10:53:06.144Z,52
2017-02-27T10:54:14.238Z,48
2017-02-27T10:55:22.363Z,48
2017-02-27T10:56:30.412Z,48
2017-02-27T10:57:38.496Z,60
2017-02-27T10:58:46.587Z,56
2017-02-27T10:59:54.676Z,48
2017-02-27T11:01:02.763Z,44
2017-02-27T11:02:10.857Z,44
2017-02-27T11:03:18.948Z,44
2017-02-27T11:04:27.034Z,48
2017-02-27T11:05:35.117Z,40
2017-02-27T11:06:43.207Z,44
2017-02-27T11:07:51.294Z,40
2017-02-27T11:08:59.379Z,56
2017-02-27T11:10:07.470Z,56
2017-02-27T11:11:15.555Z,48
2017-02-27T11:12:23.647Z,36
2017-02-27T11:13:31.732Z,40
2017-02-27T11:14:39.828Z,36
2017-02-27T11:15:47.911Z,36
2017-02-27T11:16:55.997Z,32
2017-02-27T11:18:04.146Z,36
2017-02-27T11:19:12.179Z,36
2017-02-27T11:20:20.272Z,44
2017-02-27T11:21:28.361Z,52
2017-02-27T11:22:36.450Z,56
2017-02-27T11:23:44.538Z,48
2017-02-27T11:24:52.624Z,48
2017-02-27T11:26:00.715Z,48
2017-02-27T11:27:08.801Z,48
2017-02-27T11:28:16.895Z,48
2017-02-27T11:29:24.984Z,44
2017-02-27T11:30:33.074Z,48
2017-02-27T11:31:41.157Z,48
2017-02-27T11:32:49.241Z,48
2017-02-27T11:33:57.331Z,48
2017-02-27T11:35:05.450Z,44
2017-02-27T11:36:13.505Z,40
2017-02-27T11:37:21.601Z,40
2017-02-27T11:38:29.694Z,44
2017-02-27T11:39:37.792Z,44
2017-02-27T11:40:45.882Z,44
2017-02-27T11:41:53.973Z,44
2017-02-27T11:43:02.065Z,44
2017-02-27T11:44:10.150Z,44
2017-02-27T11:45:18.236Z,48
2017-02-27T11:46:26.333Z,48
2017-02-27T11:47:34.416Z,48
2017-02-27T11:48:42.505Z,44
2017-02-27T11:49:50.601Z,44
2017-02-27T11:50:58.697Z,48
2017-02-27T11:52:06.788Z,48
2017-02-27T11:53:14.881Z,56
2017-02-27T11:54:22.971Z,56
2017-02-27T11:55:31.059Z,56
2017-02-27T11:56:39.155Z,28
2017-02-27T11:57:47.243Z,28
2017-02-27T11:58:55.337Z,28
2017-02-27T12:00:03.409Z,28
2017-02-27T12:01:11.756Z,32
2017-02-27T12:02:19.590Z,24
2017-02-27T12:03:27.677Z,28
2017-02-27T12:04:35.769Z,48
2017-02-27T12:05:43.865Z,44
2017-02-27T12:06:51.952Z,44
2017-02-27T12:08:00.036Z,44
2017-02-27T12:09:08.130Z,44
2017-02-27T12:10:16.220Z,48
2017-02-27T12:11:24.306Z,48
2017-02-27T12:12:32.393Z,48
2017-02-27T12:13:40.484Z,44
2017-02-27T12:14:48.574Z,48
2017-02-27T12:15:56.655Z,52
2017-02-27T12:17:04.746Z,48
2017-02-27T12:18:12.837Z,48
2017-02-27T12:19:20.927Z,44
2017-02-27T12:20:29.011Z,44
2017-02-27T12:21:37.113Z,44
2017-02-27T12:22:45.195Z,40
2017-02-27T12:23:53.288Z,40
2017-02-27T12:25:01.378Z,44
2017-02-27T12:26:09.464Z,40
2017-02-27T12:27:17.552Z,44
2017-02-27T12:28:25.649Z,44
2017-02-27T12:29:33.739Z,40
2017-02-27T12:30:41.833Z,40
2017-02-27T12:31:50.015Z,40
2017-02-27T12:32:58.010Z,44
2017-02-27T12:34:06.101Z,44
2017-02-27T12:35:14.192Z,44
2017-02-27T12:36:22.282Z,40
2017-02-27T12:37:30.361Z,40
2017-02-27T12:38:38.449Z,40
2017-02-27T12:39:46.533Z,44
2017-02-27T12:40:54.635Z,44
2017-02-27T12:42:02.799Z,40
2017-02-27T12:43:10.816Z,40
2017-02-27T12:44:18.937Z,40
2017-02-27T12:45:26.992Z,44
2017-02-27T12:46:35.081Z,44
2017-02-27T12:47:43.162Z,40
2017-02-27T12:48:51.252Z,44
2017-02-27T12:49:59.344Z,44
2017-02-27T12:51:07.426Z,40
2017-02-27T12:52:15.515Z,44
2017-02-27T12:53:23.610Z,44
2017-02-27T12:54:31.700Z,44
2017-02-27T12:55:39.781Z,44
2017-02-27T12:56:47.871Z,44
2017-02-27T12:57:55.959Z,44
2017-02-27T12:59:04.051Z,44
2017-02-27T13:00:12.139Z,44
2017-02-27T13:01:20.234Z,44
2017-02-27T13:02:28.321Z,44
2017-02-27T13:03:36.411Z,44
2017-02-27T13:04:44.506Z,44
2017-02-27T13:05:52.595Z,44
2017-02-27T13:07:00.679Z,44
2017-02-27T13:08:08.781Z,44
2017-02-27T13:09:16.866Z,44
2017-02-27T13:10:24.959Z,44
2017-02-27T13:11:33.045Z,44
2017-02-27T13:12:41.142Z,44
2017-02-27T13:13:49.241Z,40
2017-02-27T13:14:57.323Z,40
2017-02-27T13:16:05.415Z,40
2017-02-27T13:17:13.577Z,40
2017-02-27T13:18:21.594Z,40
2017-02-27T13:19:29.679Z,48
2017-02-27T13:20:37.776Z,44
2017-02-27T13:21:45.859Z,44
2017-02-27T13:22:53.958Z,44
2017-02-27T13:24:02.045Z,40
2017-02-27T13:25:10.132Z,40
2017-02-27T13:26:18.220Z,40
2017-02-27T13:27:26.308Z,40
2017-02-27T13:28:34.405Z,40
2017-02-27T13:29:42.493Z,40
2017-02-27T13:30:50.581Z,40
2017-02-27T13:31:58.673Z,40
2017-02-27T13:33:06.768Z,40
2017-02-27T13:34:14.858Z,36
2017-02-27T13:35:22.942Z,40
2017-02-27T13:36:31.039Z,36
2017-02-27T13:37:39.128Z,40
2017-02-27T13:38:47.212Z,40
2017-02-27T13:39:55.305Z,40
2017-02-27T13:41:03.391Z,40
2017-02-27T13:42:11.488Z,40
2017-02-27T13:43:19.585Z,44
2017-02-27T13:44:27.676Z,44
2017-02-27T13:45:35.764Z,44
2017-02-27T13:46:43.921Z,44
2017-02-27T13:47:51.944Z,44
2017-02-27T13:49:00.037Z,44
2017-02-27T13:50:08.121Z,48
2017-02-27T13:51:16.213Z,48
2017-02-27T13:52:24.303Z,48
2017-02-27T13:53:32.387Z,48
2017-02-27T13:54:40.475Z,48
2017-02-27T13:55:48.566Z,48
2017-02-27T13:56:56.653Z,48
2017-02-27T13:58:04.746Z,44
2017-02-27T13:59:12.832Z,48
2017-02-27T14:00:20.919Z,48
2017-02-27T14:01:29.007Z,48
2017-02-27T14:02:37.099Z,48
2017-02-27T14:03:45.199Z,48
2017-02-27T14:04:53.281Z,48
2017-02-27T14:06:01.365Z,48
2017-02-27T14:07:09.456Z,48
2017-02-27T14:08:17.547Z,48
2017-02-27T14:09:25.649Z,48
2017-02-27T14:10:33.734Z,52
2017-02-27T14:11:41.825Z,48
2017-02-27T14:12:49.921Z,52
2017-02-27T14:13:58.006Z,52
2017-02-27T14:15:06.102Z,52
2017-02-27T14:16:14.193Z,56
2017-02-27T14:17:22.273Z,56
2017-02-27T14:18:30.361Z,56
2017-02-27T14:19:38.451Z,56
2017-02-27T14:20:46.546Z,56
2017-02-27T14:21:54.629Z,52
2017-02-27T14:23:02.711Z,48
2017-02-27T14:24:10.806Z,48
2017-02-27T14:25:18.892Z,48
2017-02-27T14:26:26.979Z,48
2017-02-27T14:27:35.073Z,48
2017-02-27T14:28:43.156Z,44
2017-02-27T14:29:51.857Z,48
2017-02-27T14:30:59.346Z,44
2017-02-27T14:32:07.437Z,44
2017-02-27T14:33:15.913Z,48
2017-02-27T14:34:23.839Z,44
2017-02-27T14:35:31.711Z,44
2017-02-27T14:36:39.804Z,44
2017-02-27T14:37:47.891Z,48
2017-02-27T14:38:55.982Z,44
2017-02-27T14:40:04.070Z,48
2017-02-27T14:41:12.163Z,48
2017-02-27T14:42:20.251Z,48
2017-02-27T14:43:28.882Z,44
2017-02-27T14:44:37.006Z,48
2017-02-27T14:45:44.520Z,48
2017-02-27T14:46:52.619Z,48
2017-02-27T14:48:00.706Z,48
2017-02-27T14:49:08.795Z,48
2017-02-27T14:50:17.366Z,48
2017-02-27T14:51:24.980Z,48
2017-02-27T14:52:33.064Z,48
2017-02-27T14:53:41.155Z,48
2017-02-27T14:54:49.255Z,52
2017-02-27T14:55:57.344Z,56
2017-02-27T14:57:05.432Z,56
2017-02-27T14:58:13.523Z,56
2017-02-27T14:59:21.614Z,60
2017-02-27T15:00:29.701Z,60
2017-02-27T15:01:37.787Z,60
2017-02-27T15:02:45.883Z,60
2017-02-27T15:03:53.973Z,64
2017-02-27T15:05:02.062Z,60
2017-02-27T15:06:10.151Z,64
2017-02-27T15:07:18.285Z,64
2017-02-27T15:08:26.376Z,64
2017-02-27T15:09:34.412Z,64
2017-02-27T15:10:42.503Z,64
2017-02-27T15:11:50.596Z,68
2017-02-27T15:12:58.686Z,68
2017-02-27T15:14:06.783Z,68
2017-02-27T15:15:14.875Z,68
2017-02-27T15:16:22.959Z,72
2017-02-27T15:17:31.046Z,72
2017-02-27T15:18:39.142Z,72
2017-02-27T15:19:47.225Z,72
2017-02-27T15:20:55.314Z,76
2017-02-27T15:22:03.403Z,76
2017-02-27T15:23:11.501Z,80
2017-02-27T15:24:19.597Z,80
2017-02-27T15:25:27.684Z,80
2017-02-27T15:26:35.772Z,84
2017-02-27T15:27:43.855Z,84
2017-02-27T15:28:51.944Z,84
2017-02-27T15:30:00.036Z,88
2017-02-27T15:31:08.132Z,84
2017-02-27T15:32:16.221Z,80
2017-02-27T15:33:24.304Z,72
2017-02-27T15:34:32.398Z,64
2017-02-27T15:35:40.499Z,32
2017-02-27T15:36:48.575Z,16
2017-02-27T15:37:56.706Z,16
2017-02-27T15:39:04.757Z,16
2017-02-27T15:40:12.841Z,16
2017-02-27T15:41:20.928Z,16
2017-02-27T15:42:29.027Z,16
2017-02-27T15:43:37.109Z,12
2017-02-27T15:44:45.193Z,16
2017-02-27T15:45:53.286Z,16
2017-02-27T15:47:01.378Z,12
2017-02-27T15:48:09.468Z,16
2017-02-27T15:49:17.552Z,16
2017-02-27T15:50:25.656Z,12
2017-02-27T15:51:33.742Z,16
2017-02-27T15:52:41.831Z,16
2017-02-27T15:53:49.928Z,12
2017-02-27T15:54:58.018Z,12
2017-02-27T15:56:06.102Z,16
2017-02-27T15:57:14.195Z,12
2017-02-27T15:58:22.321Z,12
2017-02-27T15:59:30.374Z,12
2017-02-27T16:00:38.460Z,12
2017-02-27T16:01:46.551Z,12
2017-02-27T16:02:54.646Z,12
2017-02-27T16:04:02.739Z,8
2017-02-27T16:05:10.832Z,12
2017-02-27T16:06:18.921Z,12
2017-02-27T16:07:27.007Z,8
2017-02-27T16:08:35.096Z,8
2017-02-27T16:09:43.186Z,8
2017-02-27T16:10:51.279Z,8
2017-02-27T16:11:59.367Z,12
2017-02-27T16:13:07.457Z,12
2017-02-27T16:14:15.544Z,12
2017-02-27T16:15:23.633Z,8
2017-02-27T16:16:31.721Z,8
2017-02-27T16:17:39.819Z,8
2017-02-27T16:18:47.906Z,8
2017-02-27T16:19:55.996Z,8
2017-02-27T16:21:04.090Z,8
2017-02-27T16:22:12.180Z,8
2017-02-27T16:23:20.277Z,8
2017-02-27T16:24:28.359Z,8
2017-02-27T16:25:36.449Z,4
2017-02-27T16:26:44.578Z,8
2017-02-27T16:27:52.631Z,8
2017-02-27T16:29:00.725Z,8
2017-02-27T16:30:08.817Z,8
2017-02-27T16:31:16.904Z,8
2017-02-27T16:32:24.996Z,8
2017-02-27T16:33:33.082Z,8
2017-02-27T16:34:41.179Z,4
2017-02-27T16:35:49.273Z,4
2017-02-27T16:36:57.360Z,4
2017-02-27T16:38:05.450Z,8
2017-02-27T16:39:13.539Z,4
2017-02-27T16:40:21.626Z,4
2017-02-27T16:41:29.724Z,4